Time,TemperatureF,DewpointF,PressureIn,WindDirection,WindDirectionDegrees,WindSpeedMPH,WindSpeedGustMPH,Humidity,HourlyPrecipIn,Conditions,Clouds,dailyrainin,SoftwareType,DateUTC
2013-06-29 00:21:00,70.0,63.0,29.83,NNE,23,0.0,0.0,78,0.00,,,0.00,,2013-06-29 05:21:00,
2013-06-29 00:31:00,70.0,63.0,29.83,NNE,23,0.0,0.0,78,0.00,,,0.00,,2013-06-29 05:31:00,
2013-06-29 00:41:00,70.0,63.0,29.83,NNE,23,0.0,0.0,78,0.00,,,0.00,,2013-06-29 05:41:00,
2013-06-29 00:52:00,68.0,63.0,29.79,NNE,23,0.0,0.0,84,0.00,,,0.00,,2013-06-29 05:52:00,
2013-06-29 01:01:00,68.0,63.0,29.79,NNE,23,0.0,0.0,84,0.00,,,0.00,,2013-06-29 06:01:00,
2013-06-29 01:12:00,67.0,63.0,29.79,NNE,23,0.0,0.0,86,0.00,,,0.00,,2013-06-29 06:12:00,
2013-06-29 01:22:00,67.0,63.0,29.79,NNE,23,0.0,0.0,86,0.00,,,0.00,,2013-06-29 06:22:00,
2013-06-29 01:33:00,67.0,63.0,29.79,NNE,23,0.0,0.0,86,0.00,,,0.00,,2013-06-29 06:33:00,
2013-06-29 01:43:00,67.0,63.0,29.79,NNE,23,0.0,0.0,86,0.00,,,0.00,,2013-06-29 06:43:00,
2013-06-29 01:53:00,66.0,62.0,29.79,NNE,23,0.0,0.0,86,0.00,,,0.00,,2013-06-29 06:53:00,
2013-06-29 02:02:00,66.0,62.0,29.79,NNE,23,0.0,0.0,87,0.00,,,0.00,,2013-06-29 07:02:00,
2013-06-29 02:12:00,66.0,62.0,29.79,NNE,23,0.0,0.0,87,0.00,,,0.00,,2013-06-29 07:12:00,
2013-06-29 02:22:00,65.0,61.0,29.79,NNE,23,0.0,0.0,87,0.00,,,0.00,,2013-06-29 07:22:00,
2013-06-29 02:33:00,66.0,62.0,29.79,NNE,23,0.0,0.0,87,0.00,,,0.00,,2013-06-29 07:33:00,
2013-06-29 02:43:00,66.0,62.0,29.79,NNE,23,0.0,0.0,87,0.00,,,0.00,,2013-06-29 07:43:00,
2013-06-29 02:53:00,66.0,62.0,29.79,NNE,23,0.0,0.0,87,0.00,,,0.00,,2013-06-29 07:53:00,
2013-06-29 03:01:00,65.0,61.0,29.79,NNE,23,0.0,0.0,86,0.00,,,0.00,,2013-06-29 08:01:00,
2013-06-29 03:12:00,65.0,61.0,29.79,NNE,23,0.0,0.0,86,0.00,,,0.00,,2013-06-29 08:12:00,
2013-06-29 03:22:00,65.0,61.0,29.79,NNE,23,0.0,0.0,86,0.00,,,0.00,,2013-06-29 08:22:00,
2013-06-29 03:33:00,65.0,61.0,29.79,NNE,23,0.0,0.0,87,0.00,,,0.00,,2013-06-29 08:33:00,
2013-06-29 03:43:00,65.0,61.0,29.79,NNE,23,0.0,0.0,87,0.00,,,0.00,,2013-06-29 08:43:00,
2013-06-29 03:52:00,64.0,60.0,29.79,NNE,23,0.0,0.0,88,0.00,,,0.00,,2013-06-29 08:52:00,
2013-06-29 04:02:00,64.0,60.0,29.79,NNE,23,0.0,0.0,88,0.00,,,0.00,,2013-06-29 09:02:00,
2013-06-29 04:12:00,64.0,61.0,29.79,NNE,23,0.0,0.0,89,0.00,,,0.00,,2013-06-29 09:12:00,
2013-06-29 04:22:00,64.0,61.0,29.79,NNE,23,0.0,0.0,89,0.00,,,0.00,,2013-06-29 09:22:00,
2013-06-29 04:33:00,64.0,61.0,29.79,NNE,23,0.0,0.0,89,0.00,,,0.00,,2013-06-29 09:33:00,
2013-06-29 04:42:00,64.0,61.0,29.79,NNE,23,0.0,0.0,89,0.00,,,0.00,,2013-06-29 09:42:00,
2013-06-29 04:53:00,64.0,60.0,29.80,NNE,23,0.0,0.0,87,0.00,,,0.00,,2013-06-29 09:53:00,
2013-06-29 05:01:00,64.0,60.0,29.80,NNE,23,0.0,0.0,88,0.00,,,0.00,,2013-06-29 10:01:00,
2013-06-29 05:11:00,64.0,60.0,29.80,NNE,23,0.0,0.0,88,0.00,,,0.00,,2013-06-29 10:11:00,
2013-06-29 05:22:00,64.0,60.0,29.80,NNE,23,0.0,0.0,88,0.00,,,0.00,,2013-06-29 10:22:00,
2013-06-29 05:33:00,63.0,59.0,29.80,NNE,23,0.0,0.0,88,0.00,,,0.00,,2013-06-29 10:33:00,
2013-06-29 05:43:00,63.0,59.0,29.80,NNE,23,0.0,0.0,88,0.00,,,0.00,,2013-06-29 10:43:00,
2013-06-29 05:53:00,63.0,59.0,29.80,NNE,23,0.0,0.0,88,0.00,,,0.00,,2013-06-29 10:53:00,
2013-06-29 06:02:00,63.0,59.0,29.80,NNE,23,0.0,0.0,88,0.00,,,0.00,,2013-06-29 11:02:00,
2013-06-29 06:11:00,63.0,59.0,29.80,NNE,23,0.0,0.0,88,0.00,,,0.00,,2013-06-29 11:11:00,
2013-06-29 06:23:00,62.0,59.0,29.80,NNE,23,0.0,0.0,90,0.00,,,0.00,,2013-06-29 11:23:00,
2013-06-29 06:33:00,62.0,59.0,29.80,NNE,23,0.0,0.0,90,0.00,,,0.00,,2013-06-29 11:33:00,
2013-06-29 06:43:00,62.0,59.0,29.80,NNE,23,0.0,0.0,90,0.00,,,0.00,,2013-06-29 11:43:00,
2013-06-29 06:53:00,63.0,60.0,29.80,NNE,23,0.0,0.0,89,0.00,,,0.00,,2013-06-29 11:53:00,
2013-06-29 07:02:00,63.0,60.0,29.80,NNE,23,0.0,0.0,89,0.00,,,0.00,,2013-06-29 12:02:00,
2013-06-29 07:12:00,63.0,60.0,29.80,NNE,23,0.0,0.0,89,0.00,,,0.00,,2013-06-29 12:12:00,
2013-06-29 07:22:00,66.0,62.0,29.80,NNE,23,4.0,6.0,86,0.00,,,0.00,,2013-06-29 12:22:00,
2013-06-29 07:34:00,66.0,62.0,29.80,NNE,23,4.0,6.0,86,0.00,,,0.00,,2013-06-29 12:34:00,
2013-06-29 07:43:00,66.0,62.0,29.80,NNE,23,4.0,6.0,86,0.00,,,0.00,,2013-06-29 12:43:00,
2013-06-29 07:53:00,68.0,62.0,29.80,North,1,2.0,6.0,80,0.00,,,0.00,,2013-06-29 12:53:00,
2013-06-29 08:02:00,68.0,62.0,29.80,North,1,2.0,6.0,80,0.00,,,0.00,,2013-06-29 13:02:00,
2013-06-29 08:11:00,68.0,62.0,29.80,North,1,2.0,6.0,80,0.00,,,0.00,,2013-06-29 13:11:00,
2013-06-29 08:23:00,70.0,63.0,29.80,NNW,346,2.0,8.0,79,0.00,,,0.00,,2013-06-29 13:23:00,
2013-06-29 08:34:00,71.0,63.0,29.81,North,353,4.0,11.0,76,0.00,,,0.00,,2013-06-29 13:34:00,
2013-06-29 08:43:00,71.0,63.0,29.81,North,353,4.0,11.0,76,0.00,,,0.00,,2013-06-29 13:43:00,
2013-06-29 08:53:00,72.0,63.0,29.81,NNE,16,3.0,12.0,73,0.00,,,0.00,,2013-06-29 13:53:00,
2013-06-29 09:02:00,73.0,63.0,29.81,North,355,6.0,11.0,71,0.00,,,0.00,,2013-06-29 14:02:00,
2013-06-29 09:12:00,73.0,63.0,29.81,North,355,6.0,11.0,71,0.00,,,0.00,,2013-06-29 14:12:00,
2013-06-29 09:23:00,73.0,63.0,29.81,North,355,6.0,11.0,71,0.00,,,0.00,,2013-06-29 14:23:00,
2013-06-29 09:34:00,75.0,63.0,29.81,NNW,336,8.0,11.0,67,0.00,,,0.00,,2013-06-29 14:34:00,
2013-06-29 09:44:00,75.0,63.0,29.81,NNW,336,8.0,11.0,67,0.00,,,0.00,,2013-06-29 14:44:00,
2013-06-29 09:53:00,76.0,64.0,29.81,North,353,5.0,8.0,66,0.00,,,0.00,,2013-06-29 14:53:00,
2013-06-29 10:01:00,77.0,63.0,29.80,North,6,6.0,11.0,62,0.00,,,0.00,,2013-06-29 15:01:00,
2013-06-29 10:11:00,77.0,63.0,29.80,North,6,6.0,11.0,62,0.00,,,0.00,,2013-06-29 15:11:00,
2013-06-29 10:22:00,78.0,66.0,29.80,North,350,5.0,11.0,66,0.00,,,0.00,,2013-06-29 15:22:00,
2013-06-29 10:33:00,78.0,66.0,29.80,North,350,5.0,11.0,66,0.00,,,0.00,,2013-06-29 15:33:00,
2013-06-29 10:42:00,78.0,66.0,29.80,North,350,5.0,11.0,66,0.00,,,0.00,,2013-06-29 15:42:00,
2013-06-29 10:53:00,78.0,66.0,29.80,North,350,5.0,11.0,66,0.00,,,0.00,,2013-06-29 15:53:00,
2013-06-29 11:02:00,80.0,65.0,29.79,NNW,342,5.0,16.0,60,0.00,,,0.00,,2013-06-29 16:02:00,
2013-06-29 11:12:00,80.0,65.0,29.79,NNW,342,5.0,16.0,60,0.00,,,0.00,,2013-06-29 16:12:00,
2013-06-29 11:22:00,80.0,64.0,29.79,NNW,332,6.0,13.0,59,0.00,,,0.00,,2013-06-29 16:22:00,
2013-06-29 11:33:00,81.0,62.0,29.79,North,357,12.0,19.0,53,0.00,,,0.00,,2013-06-29 16:33:00,
2013-06-29 11:43:00,81.0,62.0,29.79,North,357,12.0,19.0,53,0.00,,,0.00,,2013-06-29 16:43:00,
2013-06-29 11:53:00,81.0,62.0,29.79,North,3,12.0,19.0,53,0.00,,,0.00,,2013-06-29 16:53:00,
2013-06-29 12:01:00,82.0,63.0,29.79,NNW,344,7.0,19.0,52,0.00,,,0.00,,2013-06-29 17:01:00,
2013-06-29 12:12:00,82.0,63.0,29.79,NNW,344,7.0,19.0,52,0.00,,,0.00,,2013-06-29 17:12:00,
2013-06-29 12:23:00,82.0,61.0,29.79,North,349,13.0,20.0,49,0.00,,,0.00,,2013-06-29 17:23:00,
2013-06-29 12:34:00,82.0,60.0,29.78,North,356,13.0,22.0,47,0.00,,,0.00,,2013-06-29 17:34:00,
2013-06-29 12:42:00,82.0,60.0,29.78,North,356,13.0,22.0,47,0.00,,,0.00,,2013-06-29 17:42:00,
2013-06-29 12:53:00,82.0,60.0,29.78,NNW,341,10.0,24.0,48,0.00,,,0.00,,2013-06-29 17:53:00,
2013-06-29 13:01:00,83.0,62.0,29.78,NNW,343,11.0,21.0,49,0.00,,,0.00,,2013-06-29 18:01:00,
2013-06-29 13:12:00,83.0,62.0,29.78,NNW,343,11.0,21.0,49,0.00,,,0.00,,2013-06-29 18:12:00,
2013-06-29 13:22:00,83.0,58.0,29.78,North,11,14.0,24.0,43,0.00,,,0.00,,2013-06-29 18:22:00,
2013-06-29 13:34:00,83.0,61.0,29.78,North,5,6.0,24.0,47,0.00,,,0.00,,2013-06-29 18:34:00,
2013-06-29 13:43:00,83.0,61.0,29.78,North,5,6.0,24.0,47,0.00,,,0.00,,2013-06-29 18:43:00,
2013-06-29 13:53:00,83.0,61.0,29.78,North,5,6.0,24.0,47,0.00,,,0.00,,2013-06-29 18:53:00,
2013-06-29 14:01:00,84.0,60.0,29.77,NNE,18,10.0,22.0,44,0.00,,,0.00,,2013-06-29 19:01:00,
2013-06-29 14:12:00,84.0,60.0,29.77,NNE,18,10.0,22.0,44,0.00,,,0.00,,2013-06-29 19:12:00,
2013-06-29 14:22:00,84.0,58.0,29.76,North,5,9.0,24.0,42,0.00,,,0.00,,2013-06-29 19:22:00,
2013-06-29 14:34:00,84.0,60.0,29.76,NNW,344,11.0,23.0,44,0.00,,,0.00,,2013-06-29 19:34:00,
2013-06-29 14:43:00,84.0,60.0,29.76,NNW,344,11.0,23.0,44,0.00,,,0.00,,2013-06-29 19:43:00,
2013-06-29 14:54:00,84.0,59.0,29.75,NNW,348,10.0,28.0,43,0.00,,,0.00,,2013-06-29 19:54:00,
2013-06-29 15:02:00,84.0,58.0,29.75,NNE,20,13.0,22.0,41,0.00,,,0.00,,2013-06-29 20:02:00,
2013-06-29 15:11:00,84.0,56.0,29.75,North,10,13.0,24.0,39,0.00,,,0.00,,2013-06-29 20:11:00,
2013-06-29 15:23:00,84.0,56.0,29.75,North,10,13.0,24.0,39,0.00,,,0.00,,2013-06-29 20:23:00,
2013-06-29 15:33:00,84.0,56.0,29.75,North,5,13.0,23.0,38,0.00,,,0.00,,2013-06-29 20:33:00,
2013-06-29 15:43:00,84.0,56.0,29.75,North,5,13.0,23.0,38,0.00,,,0.00,,2013-06-29 20:43:00,
2013-06-29 15:52:00,84.0,56.0,29.75,North,359,9.0,28.0,39,0.00,,,0.00,,2013-06-29 20:52:00,
2013-06-29 16:02:00,84.0,59.0,29.75,North,8,7.0,19.0,43,0.00,,,0.00,,2013-06-29 21:02:00,
2013-06-29 16:11:00,84.0,59.0,29.75,North,8,7.0,19.0,43,0.00,,,0.00,,2013-06-29 21:11:00,
2013-06-29 16:22:00,83.0,57.0,29.74,North,2,11.0,20.0,41,0.00,,,0.00,,2013-06-29 21:22:00,
2013-06-29 16:32:00,85.0,59.0,29.74,NNE,13,10.0,18.0,42,0.00,,,0.00,,2013-06-29 21:32:00,
2013-06-29 16:42:00,85.0,59.0,29.74,NNE,13,10.0,18.0,42,0.00,,,0.00,,2013-06-29 21:42:00,
2013-06-29 16:52:00,85.0,59.0,29.74,NNE,13,10.0,18.0,42,0.00,,,0.00,,2013-06-29 21:52:00,
2013-06-29 17:01:00,84.0,56.0,29.74,NNW,330,10.0,22.0,39,0.00,,,0.00,,2013-06-29 22:01:00,
2013-06-29 17:11:00,84.0,56.0,29.74,NNW,330,10.0,22.0,39,0.00,,,0.00,,2013-06-29 22:11:00,
2013-06-29 17:21:00,84.0,58.0,29.73,North,1,7.0,16.0,42,0.00,,,0.00,,2013-06-29 22:21:00,
2013-06-29 17:33:00,83.0,56.0,29.73,North,1,11.0,21.0,40,0.00,,,0.00,,2013-06-29 22:33:00,
2013-06-29 17:43:00,83.0,56.0,29.73,North,1,11.0,21.0,40,0.00,,,0.00,,2013-06-29 22:43:00,
2013-06-29 17:53:00,83.0,57.0,29.73,NNW,332,6.0,19.0,41,0.00,,,0.00,,2013-06-29 22:53:00,
2013-06-29 18:02:00,83.0,57.0,29.73,NNW,332,6.0,19.0,41,0.00,,,0.00,,2013-06-29 23:02:00,
2013-06-29 18:12:00,83.0,57.0,29.73,NNW,332,6.0,19.0,41,0.00,,,0.00,,2013-06-29 23:12:00,
2013-06-29 18:23:00,83.0,56.0,29.73,NNW,338,13.0,21.0,40,0.00,,,0.00,,2013-06-29 23:23:00,
2013-06-29 18:34:00,84.0,59.0,29.73,North,4,6.0,12.0,43,0.00,,,0.00,,2013-06-29 23:34:00,
2013-06-29 18:43:00,84.0,59.0,29.73,North,4,6.0,12.0,43,0.00,,,0.00,,2013-06-29 23:43:00,
2013-06-29 18:53:00,82.0,57.0,29.73,North,11,12.0,20.0,42,0.00,,,0.00,,2013-06-29 23:53:00,
2013-06-29 19:02:00,81.0,57.0,29.72,NNW,337,5.0,13.0,44,0.00,,,0.00,,2013-06-30 00:02:00,
2013-06-29 19:12:00,81.0,58.0,29.73,NNW,340,6.0,11.0,46,0.00,,,0.00,,2013-06-30 00:12:00,
2013-06-29 19:22:00,81.0,58.0,29.73,NNW,340,6.0,11.0,46,0.00,,,0.00,,2013-06-30 00:22:00,
2013-06-29 19:33:00,81.0,58.0,29.73,North,7,12.0,18.0,45,0.00,,,0.00,,2013-06-30 00:33:00,
2013-06-29 19:43:00,81.0,58.0,29.73,North,7,12.0,18.0,45,0.00,,,0.00,,2013-06-30 00:43:00,
2013-06-29 19:52:00,80.0,58.0,29.73,North,359,8.0,12.0,47,0.00,,,0.00,,2013-06-30 00:52:00,
2013-06-29 20:01:00,79.0,59.0,29.74,NNE,16,7.0,10.0,50,0.00,,,0.00,,2013-06-30 01:01:00,
2013-06-29 20:11:00,79.0,59.0,29.74,NNE,16,11.0,15.0,50,0.00,,,0.00,,2013-06-30 01:11:00,
2013-06-29 20:22:00,79.0,59.0,29.74,NNE,16,11.0,15.0,50,0.00,,,0.00,,2013-06-30 01:22:00,
2013-06-29 20:33:00,78.0,59.0,29.74,NNE,25,10.0,13.0,53,0.00,,,0.00,,2013-06-30 01:33:00,
2013-06-29 20:44:00,78.0,59.0,29.74,NNE,25,10.0,13.0,53,0.00,,,0.00,,2013-06-30 01:44:00,
2013-06-29 20:53:00,77.0,60.0,29.75,NNE,31,7.0,15.0,55,0.00,,,0.00,,2013-06-30 01:53:00,
2013-06-29 21:02:00,76.0,60.0,29.75,NNE,22,2.0,8.0,57,0.00,,,0.00,,2013-06-30 02:02:00,
2013-06-29 21:11:00,76.0,60.0,29.75,NNE,22,2.0,8.0,57,0.00,,,0.00,,2013-06-30 02:11:00,
2013-06-29 21:23:00,76.0,60.0,29.75,NNE,23,9.0,13.0,57,0.00,,,0.00,,2013-06-30 02:23:00,
2013-06-29 21:33:00,75.0,60.0,29.76,NNE,13,6.0,12.0,59,0.00,,,0.00,,2013-06-30 02:33:00,
2013-06-29 21:43:00,75.0,60.0,29.76,NNE,13,6.0,12.0,59,0.00,,,0.00,,2013-06-30 02:43:00,
2013-06-29 21:53:00,75.0,59.0,29.76,NNE,21,11.0,16.0,58,0.00,,,0.00,,2013-06-30 02:53:00,
2013-06-29 22:01:00,75.0,60.0,29.76,North,5,15.0,23.0,59,0.00,,,0.00,,2013-06-30 03:01:00,
2013-06-29 22:12:00,75.0,60.0,29.76,North,5,15.0,23.0,59,0.00,,,0.00,,2013-06-30 03:12:00,
2013-06-29 22:23:00,75.0,60.0,29.77,North,10,8.0,20.0,60,0.00,,,0.00,,2013-06-30 03:23:00,
2013-06-29 22:33:00,74.0,60.0,29.77,NNE,14,10.0,16.0,61,0.00,,,0.00,,2013-06-30 03:33:00,
2013-06-29 22:43:00,74.0,60.0,29.77,NNE,14,10.0,16.0,61,0.00,,,0.00,,2013-06-30 03:43:00,
2013-06-29 22:53:00,74.0,61.0,29.78,NNE,16,12.0,19.0,63,0.00,,,0.00,,2013-06-30 03:53:00,
2013-06-29 23:01:00,73.0,61.0,29.78,North,9,8.0,16.0,65,0.00,,,0.00,,2013-06-30 04:01:00,
2013-06-29 23:12:00,73.0,61.0,29.78,North,9,8.0,16.0,65,0.00,,,0.00,,2013-06-30 04:12:00,
2013-06-29 23:22:00,72.0,60.0,29.78,North,3,7.0,13.0,67,0.00,,,0.00,,2013-06-30 04:22:00,
2013-06-29 23:33:00,72.0,60.0,29.78,North,3,7.0,13.0,67,0.00,,,0.00,,2013-06-30 04:33:00,
2013-06-29 23:43:00,72.0,60.0,29.78,North,3,7.0,13.0,67,0.00,,,0.00,,2013-06-30 04:43:00,
2013-06-29 23:53:00,70.0,60.0,29.78,NNE,12,5.0,9.0,71,0.00,,,0.00,,2013-06-30 04:53:00,